createdAt,value
2023-03-17T00:00:46.768Z,9.50
2023-03-17T00:03:29.699Z,9.40
2023-03-17T00:05:58.977Z,9.40
2023-03-17T00:08:32.935Z,9.30
2023-03-17T00:11:01.158Z,9.30
2023-03-17T00:13:30.698Z,9.30
2023-03-17T00:16:05.012Z,9.20
2023-03-17T00:18:33.458Z,9.30
2023-03-17T00:21:00.649Z,9.20
2023-03-17T00:23:27.767Z,9.20
2023-03-17T00:25:54.969Z,9.10
2023-03-17T00:28:25.734Z,9.00
2023-03-17T00:30:59.194Z,9.00
2023-03-17T00:33:30.030Z,9.10
2023-03-17T00:35:58.684Z,9.00
2023-03-17T00:38:26.160Z,9.00
2023-03-17T00:40:53.443Z,9.00
2023-03-17T00:43:22.386Z,9.00
2023-03-17T00:45:49.583Z,8.90
2023-03-17T00:48:20.922Z,8.90
2023-03-17T00:50:50.574Z,8.80
2023-03-17T00:53:21.614Z,8.70
2023-03-17T00:55:50.011Z,8.70
2023-03-17T00:58:32.818Z,8.60
2023-03-17T01:01:01.016Z,8.60
2023-03-17T01:03:28.918Z,8.70
2023-03-17T01:05:57.820Z,8.60
2023-03-17T01:08:26.273Z,8.60
2023-03-17T01:10:53.421Z,8.60
2023-03-17T01:13:20.825Z,8.60
2023-03-17T01:15:50.574Z,8.70
2023-03-17T01:18:21.391Z,8.70
2023-03-17T01:20:50.590Z,8.70
2023-03-17T01:23:18.247Z,8.70
2023-03-17T01:25:45.668Z,8.60
2023-03-17T01:28:19.370Z,8.60
2023-03-17T01:30:47.418Z,8.70
2023-03-17T01:33:15.310Z,8.80
2023-03-17T01:35:45.836Z,8.80
2023-03-17T01:38:15.098Z,8.80
2023-03-17T01:40:52.013Z,8.80
2023-03-17T01:43:29.558Z,8.70
2023-03-17T01:46:25.468Z,8.70
2023-03-17T01:49:00.121Z,8.70
2023-03-17T01:51:52.642Z,8.70
2023-03-17T01:54:45.589Z,8.60
2023-03-17T01:57:21.492Z,8.60
2023-03-17T01:59:56.542Z,8.60
2023-03-17T02:02:34.856Z,8.60
2023-03-17T02:05:04.303Z,8.60
2023-03-17T02:07:31.488Z,8.60
2023-03-17T02:09:59.659Z,8.70
2023-03-17T02:12:29.054Z,8.60
2023-03-17T02:14:57.420Z,8.70
2023-03-17T02:17:27.330Z,8.70
2023-03-17T02:19:56.171Z,8.60
2023-03-17T02:22:24.054Z,8.50
2023-03-17T02:24:58.630Z,8.50
2023-03-17T02:27:39.786Z,8.50
2023-03-17T02:30:09.572Z,8.50
2023-03-17T02:32:38.185Z,8.40
2023-03-17T02:35:08.316Z,8.40
2023-03-17T02:37:37.854Z,8.40
2023-03-17T02:40:07.704Z,8.30
2023-03-17T02:42:35.729Z,8.20
2023-03-17T02:45:03.137Z,8.10
2023-03-17T02:47:30.324Z,8.10
2023-03-17T02:49:57.458Z,8.20
2023-03-17T02:52:25.271Z,8.20
2023-03-17T02:54:52.766Z,8.10
2023-03-17T02:57:19.840Z,8.00
2023-03-17T02:59:47.033Z,8.10
2023-03-17T03:02:14.361Z,8.00
2023-03-17T03:04:41.950Z,8.00
2023-03-17T03:07:10.522Z,7.90
2023-03-17T03:09:37.611Z,7.80
2023-03-17T03:12:06.499Z,7.80
2023-03-17T03:14:33.670Z,7.90
2023-03-17T03:17:00.696Z,8.00
2023-03-17T03:19:28.313Z,8.00
2023-03-17T03:21:55.393Z,8.10
2023-03-17T03:24:22.894Z,8.10
2023-03-17T03:26:50.022Z,8.20
2023-03-17T03:29:17.127Z,8.20
2023-03-17T03:31:44.284Z,8.10
2023-03-17T03:34:11.484Z,8.20
2023-03-17T03:36:38.622Z,8.20
2023-03-17T03:39:05.745Z,8.20
2023-03-17T03:41:32.776Z,8.30
2023-03-17T03:44:00.038Z,8.40
2023-03-17T03:46:27.951Z,8.40
2023-03-17T03:48:55.769Z,8.40
2023-03-17T03:51:22.896Z,8.40
2023-03-17T03:53:50.083Z,8.50
2023-03-17T03:56:17.137Z,8.50
2023-03-17T03:58:44.331Z,8.40
2023-03-17T04:01:11.679Z,8.40
2023-03-17T04:03:39.260Z,8.40
2023-03-17T04:06:06.595Z,8.50
2023-03-17T04:08:33.781Z,8.50
2023-03-17T04:11:01.119Z,8.50
2023-03-17T04:13:28.191Z,8.50
2023-03-17T04:15:55.339Z,8.40
2023-03-17T04:18:22.450Z,8.40
2023-03-17T04:20:49.530Z,8.30
2023-03-17T04:23:17.344Z,8.20
2023-03-17T04:25:44.946Z,8.10
2023-03-17T04:28:12.243Z,8.20
2023-03-17T04:30:39.410Z,8.20
2023-03-17T04:33:07.229Z,8.10
2023-03-17T04:35:34.487Z,8.00
2023-03-17T04:38:01.689Z,7.90
2023-03-17T04:40:29.146Z,7.70
2023-03-17T04:42:56.386Z,7.60
2023-03-17T04:45:23.458Z,7.50
2023-03-17T04:47:50.991Z,7.40
2023-03-17T04:50:18.202Z,7.40
2023-03-17T04:52:45.642Z,7.30
2023-03-17T04:55:12.704Z,7.20
2023-03-17T04:57:39.973Z,7.20
2023-03-17T05:00:08.441Z,7.10
2023-03-17T05:02:35.765Z,7.10
2023-03-17T05:05:02.883Z,7.00
2023-03-17T05:07:31.304Z,7.00
2023-03-17T05:09:59.603Z,6.90
2023-03-17T05:12:27.028Z,6.90
2023-03-17T05:14:54.089Z,7.00
2023-03-17T05:17:21.438Z,7.00
2023-03-17T05:19:48.590Z,7.00
2023-03-17T05:22:15.689Z,7.00
2023-03-17T05:24:42.976Z,7.00
2023-03-17T05:27:10.118Z,7.10
2023-03-17T05:29:38.090Z,7.10
2023-03-17T05:32:05.767Z,7.10
2023-03-17T05:34:33.535Z,7.20
2023-03-17T05:37:01.337Z,7.20
2023-03-17T05:39:28.584Z,7.30
2023-03-17T05:41:56.982Z,7.20
2023-03-17T05:44:24.765Z,7.30
2023-03-17T05:46:51.846Z,7.30
2023-03-17T05:49:19.162Z,7.40
2023-03-17T05:51:46.498Z,7.40
2023-03-17T05:54:13.945Z,7.40
2023-03-17T05:56:41.427Z,7.40
2023-03-17T05:59:09.586Z,7.40
2023-03-17T06:01:37.368Z,7.40
2023-03-17T06:04:04.483Z,7.40
2023-03-17T06:06:32.174Z,7.30
2023-03-17T06:08:59.738Z,7.30
2023-03-17T06:11:27.272Z,7.20
2023-03-17T06:13:54.673Z,7.20
2023-03-17T06:16:22.366Z,7.20
2023-03-17T06:18:49.796Z,7.20
2023-03-17T06:21:17.000Z,7.20
2023-03-17T06:23:44.098Z,7.20
2023-03-17T06:26:11.178Z,7.20
2023-03-17T06:28:38.339Z,7.20
2023-03-17T06:31:07.340Z,7.20
2023-03-17T06:33:35.343Z,7.20
2023-03-17T06:36:03.352Z,7.20
2023-03-17T06:38:30.480Z,7.30
2023-03-17T06:40:58.074Z,7.40
2023-03-17T06:43:25.292Z,7.50
2023-03-17T06:45:52.648Z,7.50
2023-03-17T06:48:19.883Z,7.50
2023-03-17T06:50:47.770Z,7.50
2023-03-17T06:53:15.014Z,7.50
2023-03-17T06:55:42.945Z,7.60
2023-03-17T06:58:10.673Z,7.70
2023-03-17T07:00:40.836Z,7.80
2023-03-17T07:03:09.998Z,7.90
2023-03-17T07:05:39.354Z,8.00
2023-03-17T07:08:06.721Z,8.10
2023-03-17T07:10:34.479Z,8.10
2023-03-17T07:13:02.414Z,8.20
2023-03-17T07:15:34.703Z,8.20
2023-03-17T07:18:02.609Z,8.30
2023-03-17T07:20:30.065Z,8.40
2023-03-17T07:22:58.096Z,8.60
2023-03-17T07:25:25.301Z,8.70
2023-03-17T07:27:52.818Z,8.70
2023-03-17T07:30:20.675Z,8.90
2023-03-17T07:32:48.746Z,9.00
2023-03-17T07:35:16.580Z,9.20
2023-03-17T07:37:44.634Z,9.40
2023-03-17T07:40:12.447Z,9.40
2023-03-17T07:42:39.590Z,9.60
2023-03-17T07:45:10.037Z,9.80
2023-03-17T07:47:37.622Z,9.90
2023-03-17T07:50:06.025Z,10.10
2023-03-17T07:52:34.694Z,10.10
2023-03-17T07:55:04.348Z,10.20
2023-03-17T07:57:41.925Z,10.40
2023-03-17T08:00:19.966Z,10.50
2023-03-17T08:03:54.491Z,10.60
2023-03-17T08:05:54.051Z,10.70
2023-03-17T08:08:29.196Z,10.80
2023-03-17T08:11:04.771Z,10.80
2023-03-17T08:13:35.252Z,10.80
2023-03-17T08:16:16.874Z,10.90
2023-03-17T08:19:21.211Z,10.90
2023-03-17T08:22:02.024Z,10.80
2023-03-17T08:24:45.856Z,10.80
2023-03-17T08:27:37.097Z,10.80
2023-03-17T08:30:09.155Z,10.80
2023-03-17T08:32:36.677Z,10.90
2023-03-17T08:35:15.969Z,11.00
2023-03-17T08:37:56.284Z,11.10
2023-03-17T08:40:26.150Z,11.20
2023-03-17T08:43:04.589Z,11.30
2023-03-17T08:45:33.538Z,11.40
2023-03-17T08:48:01.280Z,11.40
2023-03-17T08:50:36.032Z,11.60
2023-03-17T08:53:09.548Z,11.70
2023-03-17T08:55:42.070Z,11.80
2023-03-17T08:58:11.204Z,11.80
2023-03-17T09:00:51.265Z,11.60
2023-03-17T09:03:21.805Z,11.70
2023-03-17T09:05:54.916Z,11.70
2023-03-17T09:08:26.613Z,11.80
2023-03-17T09:11:08.086Z,11.80
2023-03-17T09:13:44.076Z,11.90
2023-03-17T09:16:16.558Z,12.00
2023-03-17T09:18:55.190Z,12.00
2023-03-17T09:21:22.675Z,11.90
2023-03-17T09:24:08.523Z,11.90
2023-03-17T09:26:49.112Z,11.90
2023-03-17T09:29:22.461Z,11.90
2023-03-17T09:31:58.531Z,11.80
2023-03-17T09:34:35.849Z,11.70
2023-03-17T09:37:15.683Z,11.80
2023-03-17T09:39:47.572Z,11.90
2023-03-17T09:43:06.664Z,12.00
2023-03-17T09:45:44.765Z,12.00
2023-03-17T09:48:39.121Z,12.30
2023-03-17T09:51:09.588Z,12.40
2023-03-17T09:54:11.006Z,12.50
2023-03-17T09:56:48.516Z,12.60
2023-03-17T09:59:34.455Z,12.90
2023-03-17T10:02:02.362Z,13.10
2023-03-17T10:04:29.906Z,13.30
2023-03-17T10:07:11.716Z,13.40
2023-03-17T10:10:19.886Z,13.50
2023-03-17T10:13:11.180Z,13.60
2023-03-17T10:16:01.711Z,13.80
2023-03-17T10:18:40.312Z,14.00
2023-03-17T10:21:16.387Z,14.10
2023-03-17T10:23:55.951Z,14.10
2023-03-17T10:26:45.291Z,14.30
2023-03-17T10:29:25.516Z,14.50
2023-03-17T10:31:58.299Z,14.50
2023-03-17T10:34:38.108Z,14.60
2023-03-17T10:37:16.279Z,14.70
2023-03-17T10:40:10.669Z,14.80
2023-03-17T10:43:05.982Z,14.80
2023-03-17T10:45:40.679Z,15.00
2023-03-17T10:48:11.007Z,15.30
2023-03-17T10:50:42.293Z,15.30
2023-03-17T10:54:38.511Z,15.30
2023-03-17T10:56:40.746Z,15.30
2023-03-17T10:59:24.312Z,15.40
2023-03-17T11:02:02.166Z,15.50
2023-03-17T11:04:37.332Z,15.70
2023-03-17T11:07:33.006Z,15.70
2023-03-17T11:10:08.685Z,15.80
2023-03-17T11:12:46.758Z,15.90
2023-03-17T11:15:22.868Z,15.90
2023-03-17T11:18:06.246Z,16.00
2023-03-17T11:20:52.664Z,16.10
2023-03-17T11:23:43.693Z,16.00
2023-03-17T11:26:18.946Z,16.10
2023-03-17T11:29:10.634Z,16.10
2023-03-17T11:32:02.348Z,16.20
2023-03-17T11:34:46.634Z,16.20
2023-03-17T11:38:01.386Z,16.40
2023-03-17T11:41:18.848Z,16.40
2023-03-17T11:44:19.786Z,16.50
2023-03-17T11:47:28.445Z,16.50
2023-03-17T11:50:26.545Z,16.60
2023-03-17T11:53:26.085Z,16.70
2023-03-17T11:56:44.262Z,16.90
2023-03-17T11:59:33.522Z,17.00
2023-03-17T12:02:31.643Z,17.10
2023-03-17T12:05:31.311Z,17.30
2023-03-17T12:08:27.448Z,17.10
2023-03-17T12:11:03.388Z,17.10
2023-03-17T12:13:56.886Z,17.10
2023-03-17T12:16:45.970Z,17.10
2023-03-17T12:19:40.872Z,17.20
2023-03-17T12:22:32.884Z,17.40
2023-03-17T12:25:41.450Z,17.50
2023-03-17T12:28:28.469Z,17.70
2023-03-17T12:31:24.616Z,17.90
2023-03-17T12:34:28.671Z,18.00
2023-03-17T12:37:08.677Z,18.00
2023-03-17T12:39:55.908Z,18.00
2023-03-17T12:42:47.236Z,18.00
2023-03-17T12:46:10.797Z,18.00
2023-03-17T12:49:22.933Z,18.10
2023-03-17T12:53:06.832Z,18.10
2023-03-17T12:55:37.096Z,18.00
2023-03-17T12:58:36.629Z,18.00
2023-03-17T13:01:40.356Z,18.00
2023-03-17T13:05:02.222Z,17.90
2023-03-17T13:07:42.600Z,17.80
2023-03-17T13:10:40.886Z,17.80
2023-03-17T13:13:29.478Z,17.70
2023-03-17T13:15:59.827Z,17.60
2023-03-17T13:18:48.006Z,17.60
2023-03-17T13:21:25.904Z,17.70
2023-03-17T13:24:28.548Z,17.60
2023-03-17T13:27:19.955Z,17.50
2023-03-17T13:30:02.822Z,17.50
2023-03-17T13:32:46.743Z,17.60
2023-03-17T13:35:20.309Z,17.60
2023-03-17T13:38:40.873Z,17.50
2023-03-17T13:41:33.517Z,17.40
2023-03-17T13:44:37.656Z,17.60
2023-03-17T13:47:41.309Z,17.70
2023-03-17T13:50:17.144Z,17.70
2023-03-17T13:56:18.939Z,17.60
2023-03-17T13:59:07.674Z,17.50
2023-03-17T14:02:35.411Z,17.50
2023-03-17T14:05:29.562Z,17.40
2023-03-17T14:08:06.098Z,17.40
2023-03-17T14:10:43.558Z,17.50
2023-03-17T14:13:32.818Z,17.30
2023-03-17T14:16:32.202Z,17.30
2023-03-17T14:19:22.755Z,17.10
2023-03-17T14:21:55.208Z,17.00
2023-03-17T14:24:36.112Z,16.90
2023-03-17T14:27:14.914Z,16.90
2023-03-17T14:29:55.801Z,16.90
2023-03-17T14:32:26.858Z,16.80
2023-03-17T14:35:01.979Z,16.90
2023-03-17T14:37:29.417Z,16.90
2023-03-17T14:39:59.168Z,16.90
2023-03-17T14:42:31.661Z,17.10
2023-03-17T14:45:33.633Z,17.10
2023-03-17T14:48:28.704Z,17.30
2023-03-17T14:51:10.098Z,17.40
2023-03-17T14:53:53.134Z,17.40
2023-03-17T14:56:50.701Z,17.40
2023-03-17T14:59:25.502Z,17.40
2023-03-17T15:01:59.950Z,17.40
2023-03-17T15:04:36.469Z,17.40
2023-03-17T15:07:09.032Z,17.40
2023-03-17T15:09:44.363Z,17.20
2023-03-17T15:12:26.097Z,17.10
2023-03-17T15:15:28.364Z,16.90
2023-03-17T15:18:03.780Z,16.80
2023-03-17T15:20:39.472Z,16.80
2023-03-17T15:23:20.727Z,16.70
2023-03-17T15:25:56.792Z,16.60
2023-03-17T15:28:29.386Z,16.60
2023-03-17T15:31:39.769Z,16.50
2023-03-17T15:34:12.586Z,16.50
2023-03-17T15:36:51.850Z,16.50
2023-03-17T15:39:27.154Z,16.40
2023-03-17T15:42:01.936Z,16.40
2023-03-17T15:44:33.722Z,16.30
2023-03-17T15:47:14.890Z,16.30
2023-03-17T15:49:44.871Z,16.30
2023-03-17T15:52:25.084Z,16.30
2023-03-17T15:54:57.830Z,16.20
2023-03-17T15:57:28.366Z,16.10
2023-03-17T16:00:04.947Z,16.00
2023-03-17T16:02:41.918Z,15.90
2023-03-17T16:05:28.645Z,15.80
2023-03-17T16:07:56.435Z,15.70
2023-03-17T16:10:34.692Z,15.70
2023-03-17T16:13:06.077Z,15.60
2023-03-17T16:15:42.212Z,15.50
2023-03-17T16:18:19.900Z,15.40
2023-03-17T16:20:49.963Z,15.30
2023-03-17T16:23:29.080Z,15.20
2023-03-17T16:26:15.044Z,15.10
2023-03-17T16:29:00.116Z,15.20
2023-03-17T16:31:34.752Z,15.10
2023-03-17T16:34:18.514Z,15.00
2023-03-17T16:36:52.200Z,15.00
2023-03-17T16:39:28.386Z,15.00
2023-03-17T16:41:55.817Z,15.00
2023-03-17T16:44:25.194Z,14.90
2023-03-17T16:46:57.977Z,14.90
2023-03-17T16:49:30.378Z,14.80
2023-03-17T16:52:00.412Z,14.80
2023-03-17T16:54:33.057Z,14.80
2023-03-17T16:57:13.867Z,14.70
2023-03-17T16:59:43.756Z,14.80
2023-03-17T17:02:18.473Z,14.70
2023-03-17T17:04:49.729Z,14.70
2023-03-17T17:07:16.965Z,14.70
2023-03-17T17:09:44.159Z,14.70
2023-03-17T17:12:26.286Z,14.60
2023-03-17T17:15:09.635Z,14.50
2023-03-17T17:17:39.601Z,14.60
2023-03-17T17:20:22.520Z,14.60
2023-03-17T17:22:55.141Z,14.50
2023-03-17T17:25:23.697Z,14.40
2023-03-17T17:28:02.013Z,14.40
2023-03-17T17:30:30.737Z,14.40
2023-03-17T17:33:00.475Z,14.30
2023-03-17T17:35:32.520Z,14.30
2023-03-17T17:38:01.944Z,14.30
2023-03-17T17:40:30.628Z,14.30
2023-03-17T17:42:58.515Z,14.30
2023-03-17T17:45:26.105Z,14.20
2023-03-17T17:47:53.239Z,14.20
2023-03-17T17:50:28.197Z,14.20
2023-03-17T17:53:01.567Z,14.20
2023-03-17T17:55:29.481Z,14.10
2023-03-17T17:57:56.633Z,14.10
2023-03-17T18:00:25.714Z,14.00
2023-03-17T18:02:52.770Z,14.10
2023-03-17T18:05:19.983Z,14.00
2023-03-17T18:07:47.068Z,14.00
2023-03-17T18:10:25.743Z,14.00
2023-03-17T18:12:53.597Z,14.00
2023-03-17T18:15:22.038Z,13.90
2023-03-17T18:17:50.164Z,13.80
2023-03-17T18:20:20.392Z,13.80
2023-03-17T18:22:48.079Z,13.80
2023-03-17T18:25:15.545Z,13.80
2023-03-17T18:27:43.533Z,13.80
2023-03-17T18:30:19.023Z,13.90
2023-03-17T18:32:49.579Z,13.90
2023-03-17T18:35:21.474Z,13.90
2023-03-17T18:37:49.986Z,13.90
2023-03-17T18:40:19.261Z,13.90
2023-03-17T18:42:47.220Z,13.90
2023-03-17T18:45:15.009Z,13.90
2023-03-17T18:47:42.324Z,13.90
2023-03-17T18:50:13.198Z,13.80
2023-03-17T18:52:42.095Z,13.90
2023-03-17T18:55:11.674Z,13.80
2023-03-17T18:57:39.483Z,13.80
2023-03-17T19:00:09.793Z,13.70
2023-03-17T19:02:38.201Z,13.80
2023-03-17T19:05:07.481Z,13.80
2023-03-17T19:07:35.719Z,13.80
2023-03-17T19:10:04.465Z,13.80
2023-03-17T19:12:31.956Z,13.80
2023-03-17T19:14:59.289Z,13.80
2023-03-17T19:17:26.627Z,13.80
2023-03-17T19:19:54.085Z,13.70
2023-03-17T19:22:21.223Z,13.70
2023-03-17T19:24:50.232Z,13.70
2023-03-17T19:27:18.025Z,13.60
2023-03-17T19:29:46.056Z,13.60
2023-03-17T19:32:13.279Z,13.50
2023-03-17T19:34:40.588Z,13.50
2023-03-17T19:37:07.769Z,13.40
2023-03-17T19:39:34.862Z,13.40
2023-03-17T19:42:01.984Z,13.30
2023-03-17T19:44:29.175Z,13.20
2023-03-17T19:46:56.546Z,13.10
2023-03-17T19:49:23.742Z,13.00
2023-03-17T19:51:50.916Z,12.90
2023-03-17T19:54:18.782Z,12.70
2023-03-17T19:56:46.406Z,12.70
2023-03-17T19:59:15.359Z,12.70
2023-03-17T20:01:42.801Z,12.60
2023-03-17T20:04:11.564Z,12.50
2023-03-17T20:06:38.782Z,12.40
2023-03-17T20:09:08.790Z,12.40
2023-03-17T20:11:36.295Z,12.30
2023-03-17T20:14:04.626Z,12.30
2023-03-17T20:16:36.099Z,12.30
2023-03-17T20:19:03.861Z,12.20
2023-03-17T20:21:31.369Z,12.20
2023-03-17T20:23:58.608Z,12.20
2023-03-17T20:26:25.861Z,12.20
2023-03-17T20:28:54.053Z,12.30
2023-03-17T20:31:22.527Z,12.30
2023-03-17T20:33:49.742Z,12.30
2023-03-17T20:36:16.903Z,12.20
2023-03-17T20:38:45.689Z,12.20
2023-03-17T20:41:16.587Z,12.10
2023-03-17T20:43:44.892Z,12.10
2023-03-17T20:46:22.892Z,12.10
2023-03-17T20:48:52.138Z,12.10
2023-03-17T20:51:20.056Z,12.10
2023-03-17T20:53:50.125Z,12.20
2023-03-17T20:56:22.269Z,12.10
2023-03-17T20:58:50.920Z,12.10
2023-03-17T21:01:21.277Z,12.10
2023-03-17T21:03:50.309Z,12.10
2023-03-17T21:06:18.765Z,12.10
2023-03-17T21:08:46.494Z,12.10
2023-03-17T21:11:18.689Z,12.20
2023-03-17T21:13:46.083Z,12.20
2023-03-17T21:16:24.273Z,12.30
2023-03-17T21:18:52.304Z,12.20
2023-03-17T21:21:20.669Z,12.20
2023-03-17T21:23:48.963Z,12.10
2023-03-17T21:26:16.520Z,12.00
2023-03-17T21:28:43.850Z,12.00
2023-03-17T21:31:13.578Z,11.90
2023-03-17T21:33:42.313Z,11.80
2023-03-17T21:36:10.186Z,11.80
2023-03-17T21:38:37.634Z,11.70
2023-03-17T21:41:34.549Z,11.70
2023-03-17T21:44:03.368Z,11.70
2023-03-17T21:46:31.882Z,11.70
2023-03-17T21:49:00.452Z,11.70
2023-03-17T21:51:28.637Z,11.60
2023-03-17T21:53:57.693Z,11.60
2023-03-17T21:56:25.698Z,11.60
2023-03-17T21:58:52.965Z,11.50
2023-03-17T22:01:21.915Z,11.60
2023-03-17T22:03:51.817Z,11.50
2023-03-17T22:06:20.749Z,11.60
2023-03-17T22:08:48.895Z,11.60
2023-03-17T22:11:18.903Z,11.60
2023-03-17T22:13:47.175Z,11.50
2023-03-17T22:16:16.611Z,11.50
2023-03-17T22:18:44.070Z,11.60
2023-03-17T22:21:11.520Z,11.60
2023-03-17T22:23:42.567Z,11.60
2023-03-17T22:26:15.842Z,11.50
2023-03-17T22:28:45.637Z,11.50
2023-03-17T22:31:24.290Z,11.50
2023-03-17T22:33:55.330Z,11.50
2023-03-17T22:36:24.206Z,11.50
2023-03-17T22:38:51.647Z,11.50
2023-03-17T22:41:24.032Z,11.50
2023-03-17T22:43:51.840Z,11.50
2023-03-17T22:46:20.080Z,11.40
2023-03-17T22:48:47.824Z,11.50
2023-03-17T22:51:20.842Z,11.50
2023-03-17T22:53:48.780Z,11.50
2023-03-17T22:56:17.827Z,11.40
2023-03-17T22:58:45.899Z,11.50
2023-03-17T23:01:16.217Z,11.40
2023-03-17T23:03:44.986Z,11.40
2023-03-17T23:06:13.277Z,11.40
2023-03-17T23:08:43.095Z,11.40
2023-03-17T23:11:16.345Z,11.40
2023-03-17T23:13:43.742Z,11.40
2023-03-17T23:16:11.447Z,11.40
2023-03-17T23:18:38.934Z,11.40
2023-03-17T23:21:06.886Z,11.40
2023-03-17T23:23:36.254Z,11.40
2023-03-17T23:26:04.250Z,11.40
2023-03-17T23:28:31.665Z,11.40
2023-03-17T23:30:58.857Z,11.40
2023-03-17T23:33:26.030Z,11.40
2023-03-17T23:35:53.506Z,11.40
2023-03-17T23:38:21.612Z,11.40
2023-03-17T23:40:50.018Z,11.40
2023-03-17T23:43:17.269Z,11.30
2023-03-17T23:45:45.463Z,11.20
2023-03-17T23:48:12.863Z,11.20
2023-03-17T23:50:41.237Z,11.20
2023-03-17T23:53:09.585Z,11.10
2023-03-17T23:55:36.753Z,11.10
2023-03-17T23:58:03.848Z,11.10
